sensor_id;sensor_type;location;lat;lon;timestamp;P1;durP1;ratioP1;P2;durP2;ratioP2
16326;SDS011;34812;49.846;9.610;2023-04-16T00:00:02;6.33;;;5.83;;
16326;SDS011;34812;49.846;9.610;2023-04-16T00:01:11;6.80;;;6.20;;
16326;SDS011;34812;49.846;9.610;2023-04-16T00:02:13;6.63;;;6.10;;
16326;SDS011;34812;49.846;9.610;2023-04-16T00:03:13;7.20;;;6.50;;
16326;SDS011;34812;49.846;9.610;2023-04-16T00:04:15;6.90;;;6.30;;
16326;SDS011;34812;49.846;9.610;2023-04-16T00:05:16;6.40;;;5.90;;
16326;SDS011;34812;49.846;9.610;2023-04-16T00:06:18;7.10;;;6.50;;
16326;SDS011;34812;49.846;9.610;2023-04-16T00:07:18;6.70;;;6.20;;
16326;SDS011;34812;49.846;9.610;2023-04-16T00:08:21;8.00;;;7.30;;
16326;SDS011;34812;49.846;9.610;2023-04-16T00:09:23;7.17;;;6.57;;
16326;SDS011;34812;49.846;9.610;2023-04-16T00:10:25;7.40;;;6.73;;
16326;SDS011;34812;49.846;9.610;2023-04-16T00:11:26;7.43;;;6.73;;
16326;SDS011;34812;49.846;9.610;2023-04-16T00:12:27;6.80;;;6.20;;
16326;SDS011;34812;49.846;9.610;2023-04-16T00:13:28;7.07;;;6.40;;
16326;SDS011;34812;49.846;9.610;2023-04-16T00:14:30;7.53;;;6.83;;
16326;SDS011;34812;49.846;9.610;2023-04-16T00:15:31;7.37;;;6.77;;
16326;SDS011;34812;49.846;9.610;2023-04-16T00:16:33;8.40;;;7.57;;
16326;SDS011;34812;49.846;9.610;2023-04-16T00:17:33;7.83;;;7.03;;
16326;SDS011;34812;49.846;9.610;2023-04-16T00:18:35;7.53;;;6.83;;
16326;SDS011;34812;49.846;9.610;2023-04-16T00:19:36;7.40;;;6.70;;
16326;SDS011;34812;49.846;9.610;2023-04-16T00:20:38;8.00;;;7.07;;
16326;SDS011;34812;49.846;9.610;2023-04-16T00:21:39;7.97;;;7.17;;
16326;SDS011;34812;49.846;9.610;2023-04-16T00:22:41;8.10;;;7.30;;
16326;SDS011;34812;49.846;9.610;2023-04-16T00:23:43;8.57;;;7.83;;
16326;SDS011;34812;49.846;9.610;2023-04-16T00:24:44;7.77;;;7.07;;
16326;SDS011;34812;49.846;9.610;2023-04-16T00:25:45;8.07;;;7.20;;
16326;SDS011;34812;49.846;9.610;2023-04-16T00:26:47;8.57;;;7.67;;
16326;SDS011;34812;49.846;9.610;2023-04-16T00:27:49;8.13;;;7.43;;
16326;SDS011;34812;49.846;9.610;2023-04-16T00:28:50;8.63;;;7.93;;
16326;SDS011;34812;49.846;9.610;2023-04-16T00:29:51;8.57;;;7.67;;
16326;SDS011;34812;49.846;9.610;2023-04-16T00:30:52;9.23;;;8.40;;
16326;SDS011;34812;49.846;9.610;2023-04-16T00:31:54;8.40;;;7.50;;
16326;SDS011;34812;49.846;9.610;2023-04-16T00:32:56;8.53;;;7.77;;
16326;SDS011;34812;49.846;9.610;2023-04-16T00:33:58;7.93;;;7.20;;
16326;SDS011;34812;49.846;9.610;2023-04-16T00:34:59;8.50;;;7.70;;
16326;SDS011;34812;49.846;9.610;2023-04-16T00:36:01;8.73;;;7.83;;
16326;SDS011;34812;49.846;9.610;2023-04-16T00:37:03;8.83;;;7.93;;
16326;SDS011;34812;49.846;9.610;2023-04-16T00:38:05;8.40;;;7.60;;
16326;SDS011;34812;49.846;9.610;2023-04-16T00:39:07;8.53;;;7.60;;
16326;SDS011;34812;49.846;9.610;2023-04-16T00:40:09;8.60;;;7.80;;
16326;SDS011;34812;49.846;9.610;2023-04-16T00:41:10;8.60;;;7.80;;
16326;SDS011;34812;49.846;9.610;2023-04-16T00:42:12;7.90;;;7.30;;
16326;SDS011;34812;49.846;9.610;2023-04-16T00:43:18;7.87;;;7.17;;
16326;SDS011;34812;49.846;9.610;2023-04-16T00:44:21;8.03;;;7.23;;
16326;SDS011;34812;49.846;9.610;2023-04-16T00:45:22;9.37;;;8.47;;
16326;SDS011;34812;49.846;9.610;2023-04-16T00:46:24;9.07;;;8.17;;
16326;SDS011;34812;49.846;9.610;2023-04-16T00:47:25;8.43;;;7.60;;
16326;SDS011;34812;49.846;9.610;2023-04-16T00:48:28;7.73;;;7.03;;
16326;SDS011;34812;49.846;9.610;2023-04-16T00:49:30;8.60;;;7.73;;
16326;SDS011;34812;49.846;9.610;2023-04-16T00:50:33;7.83;;;7.03;;
16326;SDS011;34812;49.846;9.610;2023-04-16T00:51:34;7.93;;;7.13;;
16326;SDS011;34812;49.846;9.610;2023-04-16T00:52:36;8.00;;;7.20;;
16326;SDS011;34812;49.846;9.610;2023-04-16T00:53:37;8.10;;;7.30;;
16326;SDS011;34812;49.846;9.610;2023-04-16T00:54:40;7.70;;;6.93;;
16326;SDS011;34812;49.846;9.610;2023-04-16T00:55:41;7.43;;;6.73;;
16326;SDS011;34812;49.846;9.610;2023-04-16T00:56:43;7.13;;;6.53;;
16326;SDS011;34812;49.846;9.610;2023-04-16T00:57:44;7.07;;;6.43;;
16326;SDS011;34812;49.846;9.610;2023-04-16T00:58:46;7.93;;;7.20;;
16326;SDS011;34812;49.846;9.610;2023-04-16T00:59:47;6.90;;;6.33;;
16326;SDS011;34812;49.846;9.610;2023-04-16T01:00:49;8.37;;;7.57;;
16326;SDS011;34812;49.846;9.610;2023-04-16T01:01:50;8.07;;;7.37;;
16326;SDS011;34812;49.846;9.610;2023-04-16T01:02:52;8.63;;;7.27;;
16326;SDS011;34812;49.846;9.610;2023-04-16T01:03:53;6.70;;;6.10;;
16326;SDS011;34812;49.846;9.610;2023-04-16T01:04:55;7.43;;;6.73;;
16326;SDS011;34812;49.846;9.610;2023-04-16T01:05:56;7.07;;;5.97;;
16326;SDS011;34812;49.846;9.610;2023-04-16T01:06:58;7.30;;;6.70;;
16326;SDS011;34812;49.846;9.610;2023-04-16T01:07:59;7.63;;;6.90;;
16326;SDS011;34812;49.846;9.610;2023-04-16T01:09:01;7.23;;;6.63;;
16326;SDS011;34812;49.846;9.610;2023-04-16T01:10:03;7.13;;;6.53;;
16326;SDS011;34812;49.846;9.610;2023-04-16T01:11:06;6.93;;;6.23;;
16326;SDS011;34812;49.846;9.610;2023-04-16T01:12:07;6.77;;;6.17;;
16326;SDS011;34812;49.846;9.610;2023-04-16T01:13:09;6.80;;;6.30;;
16326;SDS011;34812;49.846;9.610;2023-04-16T01:14:10;9.60;;;6.63;;
16326;SDS011;34812;49.846;9.610;2023-04-16T01:15:12;7.27;;;6.67;;
16326;SDS011;34812;49.846;9.610;2023-04-16T01:16:12;6.93;;;6.33;;
16326;SDS011;34812;49.846;9.610;2023-04-16T01:17:15;6.70;;;6.10;;
16326;SDS011;34812;49.846;9.610;2023-04-16T01:18:16;6.87;;;6.23;;
16326;SDS011;34812;49.846;9.610;2023-04-16T01:19:19;8.07;;;7.33;;
16326;SDS011;34812;49.846;9.610;2023-04-16T01:20:19;7.70;;;7.00;;
16326;SDS011;34812;49.846;9.610;2023-04-16T01:21:23;7.73;;;7.03;;
16326;SDS011;34812;49.846;9.610;2023-04-16T01:22:23;7.90;;;7.20;;
16326;SDS011;34812;49.846;9.610;2023-04-16T01:23:25;7.23;;;6.63;;
16326;SDS011;34812;49.846;9.610;2023-04-16T01:24:26;6.43;;;5.90;;
16326;SDS011;34812;49.846;9.610;2023-04-16T01:25:28;7.10;;;6.50;;
16326;SDS011;34812;49.846;9.610;2023-04-16T01:26:29;7.97;;;7.07;;
16326;SDS011;34812;49.846;9.610;2023-04-16T01:27:31;7.77;;;7.07;;
16326;SDS011;34812;49.846;9.610;2023-04-16T01:28:32;7.60;;;7.00;;
16326;SDS011;34812;49.846;9.610;2023-04-16T01:29:34;7.53;;;6.83;;
16326;SDS011;34812;49.846;9.610;2023-04-16T01:30:34;7.23;;;6.63;;
16326;SDS011;34812;49.846;9.610;2023-04-16T01:32:14;7.30;;;6.70;;
16326;SDS011;34812;49.846;9.610;2023-04-16T01:33:17;7.10;;;6.50;;
16326;SDS011;34812;49.846;9.610;2023-04-16T01:34:18;8.40;;;7.60;;
16326;SDS011;34812;49.846;9.610;2023-04-16T01:35:20;7.83;;;7.20;;
16326;SDS011;34812;49.846;9.610;2023-04-16T01:36:21;8.80;;;8.00;;
16326;SDS011;34812;49.846;9.610;2023-04-16T01:37:24;7.93;;;7.23;;
16326;SDS011;34812;49.846;9.610;2023-04-16T01:38:24;8.07;;;7.37;;
16326;SDS011;34812;49.846;9.610;2023-04-16T01:39:26;8.73;;;7.93;;
16326;SDS011;34812;49.846;9.610;2023-04-16T01:40:27;8.63;;;7.93;;
16326;SDS011;34812;49.846;9.610;2023-04-16T01:41:29;8.40;;;7.63;;
16326;SDS011;34812;49.846;9.610;2023-04-16T01:42:31;9.40;;;8.47;;
16326;SDS011;34812;49.846;9.610;2023-04-16T01:43:32;8.20;;;7.43;;
16326;SDS011;34812;49.846;9.610;2023-04-16T01:44:33;9.20;;;8.30;;
16326;SDS011;34812;49.846;9.610;2023-04-16T01:45:35;9.87;;;8.77;;
16326;SDS011;34812;49.846;9.610;2023-04-16T01:46:36;9.00;;;8.10;;
16326;SDS011;34812;49.846;9.610;2023-04-16T01:47:38;9.50;;;8.70;;
16326;SDS011;34812;49.846;9.610;2023-04-16T01:48:39;10.37;;;9.33;;
16326;SDS011;34812;49.846;9.610;2023-04-16T01:49:41;10.43;;;9.43;;
16326;SDS011;34812;49.846;9.610;2023-04-16T01:50:44;10.07;;;9.10;;
16326;SDS011;34812;49.846;9.610;2023-04-16T01:51:48;11.83;;;10.70;;
16326;SDS011;34812;49.846;9.610;2023-04-16T01:52:48;11.43;;;10.20;;
16326;SDS011;34812;49.846;9.610;2023-04-16T01:53:50;10.87;;;9.87;;
16326;SDS011;34812;49.846;9.610;2023-04-16T01:54:51;11.43;;;10.43;;
16326;SDS011;34812;49.846;9.610;2023-04-16T01:55:52;12.10;;;10.90;;
16326;SDS011;34812;49.846;9.610;2023-04-16T01:56:53;13.10;;;11.80;;
16326;SDS011;34812;49.846;9.610;2023-04-16T01:57:56;11.80;;;10.70;;
16326;SDS011;34812;49.846;9.610;2023-04-16T01:59:00;11.87;;;10.67;;
16326;SDS011;34812;49.846;9.610;2023-04-16T02:00:08;12.33;;;11.20;;
16326;SDS011;34812;49.846;9.610;2023-04-16T02:01:18;13.73;;;11.33;;
16326;SDS011;34812;49.846;9.610;2023-04-16T02:02:21;13.00;;;11.70;;
16326;SDS011;34812;49.846;9.610;2023-04-16T02:03:28;13.13;;;11.83;;
16326;SDS011;34812;49.846;9.610;2023-04-16T02:04:31;12.80;;;11.57;;
16326;SDS011;34812;49.846;9.610;2023-04-16T02:05:32;14.50;;;12.93;;
16326;SDS011;34812;49.846;9.610;2023-04-16T02:06:33;14.67;;;13.13;;
16326;SDS011;34812;49.846;9.610;2023-04-16T02:07:36;13.90;;;12.50;;
16326;SDS011;34812;49.846;9.610;2023-04-16T02:08:38;15.27;;;13.43;;
16326;SDS011;34812;49.846;9.610;2023-04-16T02:09:40;15.70;;;14.07;;
16326;SDS011;34812;49.846;9.610;2023-04-16T02:10:44;17.47;;;14.40;;
16326;SDS011;34812;49.846;9.610;2023-04-16T02:11:45;14.77;;;13.27;;
16326;SDS011;34812;49.846;9.610;2023-04-16T02:12:47;15.57;;;14.07;;
16326;SDS011;34812;49.846;9.610;2023-04-16T02:13:48;16.10;;;14.47;;
16326;SDS011;34812;49.846;9.610;2023-04-16T02:14:51;15.77;;;14.17;;
16326;SDS011;34812;49.846;9.610;2023-04-16T02:15:53;15.77;;;14.13;;
16326;SDS011;34812;49.846;9.610;2023-04-16T02:17:06;16.27;;;14.60;;
16326;SDS011;34812;49.846;9.610;2023-04-16T02:18:10;17.57;;;15.87;;
16326;SDS011;34812;49.846;9.610;2023-04-16T02:19:12;16.90;;;14.57;;
16326;SDS011;34812;49.846;9.610;2023-04-16T02:20:14;16.17;;;14.43;;
16326;SDS011;34812;49.846;9.610;2023-04-16T02:21:24;17.13;;;15.33;;
16326;SDS011;34812;49.846;9.610;2023-04-16T02:22:26;16.50;;;14.70;;
16326;SDS011;34812;49.846;9.610;2023-04-16T02:23:29;17.73;;;15.83;;
16326;SDS011;34812;49.846;9.610;2023-04-16T02:24:32;17.67;;;15.80;;
16326;SDS011;34812;49.846;9.610;2023-04-16T02:25:38;18.30;;;16.43;;
16326;SDS011;34812;49.846;9.610;2023-04-16T02:26:40;18.90;;;16.40;;
16326;SDS011;34812;49.846;9.610;2023-04-16T02:27:47;18.20;;;16.40;;
16326;SDS011;34812;49.846;9.610;2023-04-16T02:29:01;18.87;;;16.83;;
16326;SDS011;34812;49.846;9.610;2023-04-16T02:30:10;17.97;;;16.00;;
16326;SDS011;34812;49.846;9.610;2023-04-16T02:31:12;18.53;;;16.60;;
16326;SDS011;34812;49.846;9.610;2023-04-16T02:32:18;18.77;;;15.70;;
16326;SDS011;34812;49.846;9.610;2023-04-16T02:33:20;21.00;;;18.43;;
16326;SDS011;34812;49.846;9.610;2023-04-16T02:34:30;19.10;;;16.80;;
16326;SDS011;34812;49.846;9.610;2023-04-16T02:35:33;18.83;;;16.93;;
16326;SDS011;34812;49.846;9.610;2023-04-16T02:36:36;18.83;;;17.00;;
16326;SDS011;34812;49.846;9.610;2023-04-16T02:37:37;20.70;;;17.40;;
16326;SDS011;34812;49.846;9.610;2023-04-16T02:38:41;17.87;;;15.93;;
16326;SDS011;34812;49.846;9.610;2023-04-16T02:39:42;19.27;;;17.33;;
16326;SDS011;34812;49.846;9.610;2023-04-16T02:40:44;19.43;;;17.43;;
16326;SDS011;34812;49.846;9.610;2023-04-16T02:41:44;19.53;;;17.40;;
16326;SDS011;34812;49.846;9.610;2023-04-16T02:42:46;19.63;;;17.50;;
16326;SDS011;34812;49.846;9.610;2023-04-16T02:43:48;19.23;;;17.23;;
16326;SDS011;34812;49.846;9.610;2023-04-16T02:44:49;18.03;;;16.13;;
16326;SDS011;34812;49.846;9.610;2023-04-16T02:45:50;19.60;;;17.53;;
16326;SDS011;34812;49.846;9.610;2023-04-16T02:46:52;19.43;;;17.30;;
16326;SDS011;34812;49.846;9.610;2023-04-16T02:47:53;19.53;;;16.83;;
16326;SDS011;34812;49.846;9.610;2023-04-16T02:48:54;19.73;;;17.73;;
16326;SDS011;34812;49.846;9.610;2023-04-16T02:49:55;18.30;;;15.80;;
16326;SDS011;34812;49.846;9.610;2023-04-16T02:50:57;18.33;;;16.43;;
16326;SDS011;34812;49.846;9.610;2023-04-16T02:51:59;17.93;;;16.13;;
16326;SDS011;34812;49.846;9.610;2023-04-16T02:52:59;17.57;;;15.77;;
16326;SDS011;34812;49.846;9.610;2023-04-16T02:54:02;18.00;;;16.07;;
16326;SDS011;34812;49.846;9.610;2023-04-16T02:55:04;19.70;;;17.60;;
16326;SDS011;34812;49.846;9.610;2023-04-16T02:56:07;19.07;;;17.07;;
16326;SDS011;34812;49.846;9.610;2023-04-16T02:57:07;17.93;;;16.17;;
16326;SDS011;34812;49.846;9.610;2023-04-16T02:58:09;19.10;;;17.10;;
16326;SDS011;34812;49.846;9.610;2023-04-16T02:59:10;16.73;;;14.93;;
16326;SDS011;34812;49.846;9.610;2023-04-16T03:00:12;17.47;;;15.63;;
16326;SDS011;34812;49.846;9.610;2023-04-16T03:01:13;17.17;;;15.37;;
16326;SDS011;34812;49.846;9.610;2023-04-16T03:02:15;17.77;;;15.20;;
16326;SDS011;34812;49.846;9.610;2023-04-16T03:03:15;17.50;;;15.17;;
16326;SDS011;34812;49.846;9.610;2023-04-16T03:04:17;18.37;;;16.30;;
16326;SDS011;34812;49.846;9.610;2023-04-16T03:05:18;18.43;;;16.53;;
16326;SDS011;34812;49.846;9.610;2023-04-16T03:06:20;17.87;;;15.97;;
16326;SDS011;34812;49.846;9.610;2023-04-16T03:07:21;17.57;;;15.73;;
16326;SDS011;34812;49.846;9.610;2023-04-16T03:08:23;17.07;;;15.37;;
16326;SDS011;34812;49.846;9.610;2023-04-16T03:09:25;16.07;;;14.47;;
16326;SDS011;34812;49.846;9.610;2023-04-16T03:10:27;16.47;;;14.77;;
16326;SDS011;34812;49.846;9.610;2023-04-16T03:11:28;17.20;;;15.43;;
16326;SDS011;34812;49.846;9.610;2023-04-16T03:12:30;17.27;;;15.47;;
16326;SDS011;34812;49.846;9.610;2023-04-16T03:13:30;18.27;;;16.37;;
16326;SDS011;34812;49.846;9.610;2023-04-16T03:14:32;17.03;;;15.20;;
16326;SDS011;34812;49.846;9.610;2023-04-16T03:15:33;17.10;;;15.40;;
16326;SDS011;34812;49.846;9.610;2023-04-16T03:16:34;17.33;;;15.53;;
16326;SDS011;34812;49.846;9.610;2023-04-16T03:17:35;16.70;;;15.10;;
16326;SDS011;34812;49.846;9.610;2023-04-16T03:18:37;17.67;;;15.77;;
16326;SDS011;34812;49.846;9.610;2023-04-16T03:19:38;18.13;;;15.53;;
16326;SDS011;34812;49.846;9.610;2023-04-16T03:20:39;18.70;;;16.67;;
16326;SDS011;34812;49.846;9.610;2023-04-16T03:21:40;18.03;;;15.23;;
16326;SDS011;34812;49.846;9.610;2023-04-16T03:22:42;17.87;;;15.40;;
16326;SDS011;34812;49.846;9.610;2023-04-16T03:23:42;16.63;;;14.93;;
16326;SDS011;34812;49.846;9.610;2023-04-16T03:24:46;17.03;;;15.33;;
16326;SDS011;34812;49.846;9.610;2023-04-16T03:25:46;18.90;;;16.37;;
16326;SDS011;34812;49.846;9.610;2023-04-16T03:26:51;16.93;;;14.90;;
16326;SDS011;34812;49.846;9.610;2023-04-16T03:27:54;17.63;;;15.47;;
16326;SDS011;34812;49.846;9.610;2023-04-16T03:28:56;17.53;;;15.70;;
16326;SDS011;34812;49.846;9.610;2023-04-16T03:29:57;18.10;;;16.13;;
16326;SDS011;34812;49.846;9.610;2023-04-16T03:30:59;16.57;;;14.87;;
16326;SDS011;34812;49.846;9.610;2023-04-16T03:32:00;17.73;;;15.93;;
16326;SDS011;34812;49.846;9.610;2023-04-16T03:33:02;17.77;;;15.97;;
16326;SDS011;34812;49.846;9.610;2023-04-16T03:34:03;17.83;;;16.03;;
16326;SDS011;34812;49.846;9.610;2023-04-16T03:35:06;16.93;;;15.13;;
16326;SDS011;34812;49.846;9.610;2023-04-16T03:36:07;18.63;;;16.73;;
16326;SDS011;34812;49.846;9.610;2023-04-16T03:37:10;19.20;;;17.23;;
16326;SDS011;34812;49.846;9.610;2023-04-16T03:38:11;18.33;;;16.33;;
16326;SDS011;34812;49.846;9.610;2023-04-16T03:39:13;19.03;;;17.13;;
16326;SDS011;34812;49.846;9.610;2023-04-16T03:40:16;17.33;;;15.63;;
16326;SDS011;34812;49.846;9.610;2023-04-16T03:41:17;18.50;;;16.60;;
16326;SDS011;34812;49.846;9.610;2023-04-16T03:42:18;19.67;;;17.33;;
16326;SDS011;34812;49.846;9.610;2023-04-16T03:43:20;18.70;;;16.90;;
16326;SDS011;34812;49.846;9.610;2023-04-16T03:44:21;17.80;;;16.03;;
16326;SDS011;34812;49.846;9.610;2023-04-16T03:45:23;17.37;;;15.53;;
16326;SDS011;34812;49.846;9.610;2023-04-16T03:46:25;17.90;;;16.00;;
16326;SDS011;34812;49.846;9.610;2023-04-16T03:47:26;18.83;;;16.80;;
16326;SDS011;34812;49.846;9.610;2023-04-16T03:48:32;19.10;;;17.10;;
16326;SDS011;34812;49.846;9.610;2023-04-16T03:49:32;18.30;;;16.40;;
16326;SDS011;34812;49.846;9.610;2023-04-16T03:50:34;18.40;;;16.50;;
16326;SDS011;34812;49.846;9.610;2023-04-16T03:51:36;18.90;;;16.90;;
16326;SDS011;34812;49.846;9.610;2023-04-16T03:52:38;19.37;;;17.33;;
16326;SDS011;34812;49.846;9.610;2023-04-16T03:53:40;19.87;;;17.83;;
16326;SDS011;34812;49.846;9.610;2023-04-16T03:54:42;18.97;;;16.97;;
16326;SDS011;34812;49.846;9.610;2023-04-16T03:55:54;19.33;;;17.23;;
16326;SDS011;34812;49.846;9.610;2023-04-16T03:56:56;19.73;;;17.67;;
16326;SDS011;34812;49.846;9.610;2023-04-16T03:57:57;19.27;;;17.37;;
16326;SDS011;34812;49.846;9.610;2023-04-16T03:59:02;19.33;;;17.40;;
16326;SDS011;34812;49.846;9.610;2023-04-16T04:00:03;19.23;;;17.40;;
16326;SDS011;34812;49.846;9.610;2023-04-16T04:01:14;19.73;;;17.63;;
16326;SDS011;34812;49.846;9.610;2023-04-16T04:02:15;19.03;;;16.57;;
16326;SDS011;34812;49.846;9.610;2023-04-16T04:03:17;20.83;;;18.60;;
16326;SDS011;34812;49.846;9.610;2023-04-16T04:04:19;19.67;;;17.67;;
16326;SDS011;34812;49.846;9.610;2023-04-16T04:05:21;20.67;;;18.07;;
16326;SDS011;34812;49.846;9.610;2023-04-16T04:06:22;21.63;;;19.37;;
16326;SDS011;34812;49.846;9.610;2023-04-16T04:07:24;21.83;;;18.77;;
16326;SDS011;34812;49.846;9.610;2023-04-16T04:08:26;21.40;;;18.57;;
16326;SDS011;34812;49.846;9.610;2023-04-16T04:09:27;21.03;;;18.73;;
16326;SDS011;34812;49.846;9.610;2023-04-16T04:10:30;20.37;;;18.27;;
16326;SDS011;34812;49.846;9.610;2023-04-16T04:11:34;21.07;;;18.83;;
16326;SDS011;34812;49.846;9.610;2023-04-16T04:12:34;21.30;;;19.13;;
16326;SDS011;34812;49.846;9.610;2023-04-16T04:13:36;21.97;;;19.87;;
16326;SDS011;34812;49.846;9.610;2023-04-16T04:14:37;20.63;;;18.47;;
16326;SDS011;34812;49.846;9.610;2023-04-16T04:15:40;21.33;;;19.13;;
16326;SDS011;34812;49.846;9.610;2023-04-16T04:16:41;20.53;;;18.27;;
16326;SDS011;34812;49.846;9.610;2023-04-16T04:17:42;21.23;;;19.03;;
16326;SDS011;34812;49.846;9.610;2023-04-16T04:18:43;20.17;;;18.13;;
16326;SDS011;34812;49.846;9.610;2023-04-16T04:19:45;22.43;;;19.23;;
16326;SDS011;34812;49.846;9.610;2023-04-16T04:20:46;21.80;;;19.50;;
16326;SDS011;34812;49.846;9.610;2023-04-16T04:21:50;19.60;;;17.60;;
16326;SDS011;34812;49.846;9.610;2023-04-16T04:22:51;21.37;;;19.17;;
16326;SDS011;34812;49.846;9.610;2023-04-16T04:23:56;20.10;;;18.10;;
16326;SDS011;34812;49.846;9.610;2023-04-16T04:24:57;22.40;;;20.03;;
16326;SDS011;34812;49.846;9.610;2023-04-16T04:26:01;21.07;;;18.83;;
16326;SDS011;34812;49.846;9.610;2023-04-16T04:27:06;21.27;;;19.07;;
16326;SDS011;34812;49.846;9.610;2023-04-16T04:28:08;21.93;;;19.73;;
16326;SDS011;34812;49.846;9.610;2023-04-16T04:29:09;21.93;;;19.63;;
16326;SDS011;34812;49.846;9.610;2023-04-16T04:30:11;23.03;;;20.60;;
16326;SDS011;34812;49.846;9.610;2023-04-16T04:31:12;20.83;;;18.73;;
16326;SDS011;34812;49.846;9.610;2023-04-16T04:32:16;20.57;;;18.47;;
16326;SDS011;34812;49.846;9.610;2023-04-16T04:33:19;21.73;;;18.70;;
16326;SDS011;34812;49.846;9.610;2023-04-16T04:34:21;21.33;;;19.17;;
16326;SDS011;34812;49.846;9.610;2023-04-16T04:35:22;21.70;;;19.37;;
16326;SDS011;34812;49.846;9.610;2023-04-16T04:36:24;23.03;;;19.10;;
16326;SDS011;34812;49.846;9.610;2023-04-16T04:37:26;23.03;;;20.50;;
16326;SDS011;34812;49.846;9.610;2023-04-16T04:38:28;23.83;;;19.60;;
16326;SDS011;34812;49.846;9.610;2023-04-16T04:39:31;21.97;;;19.67;;
16326;SDS011;34812;49.846;9.610;2023-04-16T04:40:34;21.83;;;19.53;;
16326;SDS011;34812;49.846;9.610;2023-04-16T04:41:37;20.80;;;18.00;;
16326;SDS011;34812;49.846;9.610;2023-04-16T04:42:40;21.33;;;18.93;;
16326;SDS011;34812;49.846;9.610;2023-04-16T04:43:41;20.67;;;18.47;;
16326;SDS011;34812;49.846;9.610;2023-04-16T04:44:43;23.70;;;18.57;;
16326;SDS011;34812;49.846;9.610;2023-04-16T04:45:44;21.87;;;19.63;;
16326;SDS011;34812;49.846;9.610;2023-04-16T04:46:46;21.10;;;19.00;;
16326;SDS011;34812;49.846;9.610;2023-04-16T04:47:47;21.00;;;18.90;;
16326;SDS011;34812;49.846;9.610;2023-04-16T04:48:49;21.63;;;18.93;;
16326;SDS011;34812;49.846;9.610;2023-04-16T04:49:50;19.63;;;17.57;;
16326;SDS011;34812;49.846;9.610;2023-04-16T04:50:53;20.80;;;18.70;;
16326;SDS011;34812;49.846;9.610;2023-04-16T04:51:54;20.57;;;18.57;;
16326;SDS011;34812;49.846;9.610;2023-04-16T04:52:56;19.53;;;17.73;;
16326;SDS011;34812;49.846;9.610;2023-04-16T04:53:57;18.63;;;16.70;;
16326;SDS011;34812;49.846;9.610;2023-04-16T04:54:59;19.47;;;17.33;;
16326;SDS011;34812;49.846;9.610;2023-04-16T04:55:59;22.17;;;19.87;;
16326;SDS011;34812;49.846;9.610;2023-04-16T04:57:01;23.27;;;19.60;;
16326;SDS011;34812;49.846;9.610;2023-04-16T04:58:04;20.77;;;18.50;;
16326;SDS011;34812;49.846;9.610;2023-04-16T04:59:07;21.27;;;18.57;;
16326;SDS011;34812;49.846;9.610;2023-04-16T05:00:08;21.27;;;19.10;;
16326;SDS011;34812;49.846;9.610;2023-04-16T05:01:21;20.90;;;18.27;;
16326;SDS011;34812;49.846;9.610;2023-04-16T05:02:23;20.60;;;18.43;;
16326;SDS011;34812;49.846;9.610;2023-04-16T05:03:23;22.90;;;19.67;;
16326;SDS011;34812;49.846;9.610;2023-04-16T05:04:25;23.30;;;18.77;;
16326;SDS011;34812;49.846;9.610;2023-04-16T05:05:26;21.43;;;19.23;;
16326;SDS011;34812;49.846;9.610;2023-04-16T05:06:28;20.67;;;18.53;;
16326;SDS011;34812;49.846;9.610;2023-04-16T05:07:28;19.33;;;17.30;;
16326;SDS011;34812;49.846;9.610;2023-04-16T05:08:30;21.03;;;18.93;;
16326;SDS011;34812;49.846;9.610;2023-04-16T05:09:31;20.50;;;18.47;;
16326;SDS011;34812;49.846;9.610;2023-04-16T05:10:33;21.20;;;18.90;;
16326;SDS011;34812;49.846;9.610;2023-04-16T05:11:33;20.57;;;18.10;;
16326;SDS011;34812;49.846;9.610;2023-04-16T05:12:35;20.93;;;18.83;;
16326;SDS011;34812;49.846;9.610;2023-04-16T05:13:37;20.73;;;18.60;;
16326;SDS011;34812;49.846;9.610;2023-04-16T05:14:39;22.30;;;19.93;;
16326;SDS011;34812;49.846;9.610;2023-04-16T05:15:40;21.00;;;18.90;;
16326;SDS011;34812;49.846;9.610;2023-04-16T05:16:41;18.97;;;17.07;;
16326;SDS011;34812;49.846;9.610;2023-04-16T05:17:42;20.80;;;17.97;;
16326;SDS011;34812;49.846;9.610;2023-04-16T05:18:44;19.20;;;17.30;;
16326;SDS011;34812;49.846;9.610;2023-04-16T05:19:45;19.70;;;17.70;;
16326;SDS011;34812;49.846;9.610;2023-04-16T05:20:47;19.77;;;17.77;;
16326;SDS011;34812;49.846;9.610;2023-04-16T05:21:48;21.00;;;18.83;;
16326;SDS011;34812;49.846;9.610;2023-04-16T05:22:49;19.20;;;17.30;;
16326;SDS011;34812;49.846;9.610;2023-04-16T05:23:50;20.23;;;18.13;;
16326;SDS011;34812;49.846;9.610;2023-04-16T05:24:52;20.10;;;18.07;;
16326;SDS011;34812;49.846;9.610;2023-04-16T05:25:53;18.30;;;16.40;;
16326;SDS011;34812;49.846;9.610;2023-04-16T05:26:55;19.30;;;17.30;;
16326;SDS011;34812;49.846;9.610;2023-04-16T05:27:56;17.77;;;15.97;;
16326;SDS011;34812;49.846;9.610;2023-04-16T05:28:59;19.03;;;16.93;;
16326;SDS011;34812;49.846;9.610;2023-04-16T05:30:00;18.80;;;16.93;;
16326;SDS011;34812;49.846;9.610;2023-04-16T05:31:02;19.57;;;17.57;;
16326;SDS011;34812;49.846;9.610;2023-04-16T05:32:03;19.43;;;17.47;;
16326;SDS011;34812;49.846;9.610;2023-04-16T05:33:04;19.30;;;17.37;;
16326;SDS011;34812;49.846;9.610;2023-04-16T05:34:05;18.83;;;16.93;;
16326;SDS011;34812;49.846;9.610;2023-04-16T05:35:07;18.57;;;16.70;;
16326;SDS011;34812;49.846;9.610;2023-04-16T05:36:08;19.17;;;16.60;;
16326;SDS011;34812;49.846;9.610;2023-04-16T05:37:10;19.67;;;17.60;;
16326;SDS011;34812;49.846;9.610;2023-04-16T05:38:11;20.20;;;17.63;;
16326;SDS011;34812;49.846;9.610;2023-04-16T05:39:13;21.27;;;19.07;;
16326;SDS011;34812;49.846;9.610;2023-04-16T05:40:15;18.83;;;16.93;;
16326;SDS011;34812;49.846;9.610;2023-04-16T05:41:17;19.60;;;17.70;;
16326;SDS011;34812;49.846;9.610;2023-04-16T05:42:18;19.87;;;17.97;;
16326;SDS011;34812;49.846;9.610;2023-04-16T05:43:20;19.80;;;17.90;;
16326;SDS011;34812;49.846;9.610;2023-04-16T05:44:22;21.80;;;19.07;;
16326;SDS011;34812;49.846;9.610;2023-04-16T05:45:23;20.10;;;18.03;;
16326;SDS011;34812;49.846;9.610;2023-04-16T05:46:24;20.57;;;18.57;;
16326;SDS011;34812;49.846;9.610;2023-04-16T05:47:26;19.87;;;17.97;;
16326;SDS011;34812;49.846;9.610;2023-04-16T05:48:27;20.13;;;18.13;;
16326;SDS011;34812;49.846;9.610;2023-04-16T05:49:28;19.70;;;17.70;;
16326;SDS011;34812;49.846;9.610;2023-04-16T05:50:29;19.47;;;17.43;;
16326;SDS011;34812;49.846;9.610;2023-04-16T05:51:31;19.37;;;17.47;;
16326;SDS011;34812;49.846;9.610;2023-04-16T05:52:32;19.73;;;17.63;;
16326;SDS011;34812;49.846;9.610;2023-04-16T05:53:33;19.10;;;17.20;;
16326;SDS011;34812;49.846;9.610;2023-04-16T05:54:34;20.10;;;18.10;;
16326;SDS011;34812;49.846;9.610;2023-04-16T05:55:36;20.47;;;18.27;;
16326;SDS011;34812;49.846;9.610;2023-04-16T05:56:37;19.57;;;17.77;;
16326;SDS011;34812;49.846;9.610;2023-04-16T05:57:38;20.00;;;18.00;;
16326;SDS011;34812;49.846;9.610;2023-04-16T05:58:39;19.73;;;17.83;;
16326;SDS011;34812;49.846;9.610;2023-04-16T05:59:42;19.20;;;17.17;;
16326;SDS011;34812;49.846;9.610;2023-04-16T06:00:43;19.47;;;17.67;;
16326;SDS011;34812;49.846;9.610;2023-04-16T06:01:45;20.90;;;18.80;;
16326;SDS011;34812;49.846;9.610;2023-04-16T06:02:45;19.60;;;17.70;;
16326;SDS011;34812;49.846;9.610;2023-04-16T06:03:47;19.97;;;18.07;;
16326;SDS011;34812;49.846;9.610;2023-04-16T06:04:48;19.60;;;17.73;;
16326;SDS011;34812;49.846;9.610;2023-04-16T06:05:50;18.83;;;16.93;;